createdAt,value
2022-10-11T00:00:42.823Z,34.50
2022-10-11T00:03:09.762Z,35.50
2022-10-11T00:05:36.733Z,37.30
2022-10-11T00:08:05.653Z,40.60
2022-10-11T00:10:33.426Z,40.40
2022-10-11T00:13:00.425Z,34.80
2022-10-11T00:15:27.351Z,37.20
2022-10-11T00:17:54.212Z,39.20
2022-10-11T00:20:21.188Z,37.00
2022-10-11T00:22:49.456Z,36.70
2022-10-11T00:25:16.600Z,35.80
2022-10-11T00:27:43.553Z,41.10
2022-10-11T00:30:10.976Z,30.10
2022-10-11T00:32:38.466Z,34.50
2022-10-11T00:35:06.553Z,28.00
2022-10-11T00:37:36.390Z,28.40
2022-10-11T00:40:05.528Z,34.50
2022-10-11T00:42:32.554Z,34.10
2022-10-11T00:45:27.495Z,27.20
2022-10-11T00:47:55.436Z,29.00
2022-10-11T00:50:23.066Z,28.70
2022-10-11T00:52:54.864Z,26.60
2022-10-11T00:55:21.821Z,25.70
2022-10-11T00:57:48.963Z,29.60
2022-10-11T01:00:16.346Z,27.60
2022-10-11T01:02:43.293Z,30.80
2022-10-11T01:05:28.697Z,29.60
2022-10-11T01:07:58.770Z,31.20
2022-10-11T01:10:25.971Z,33.80
2022-10-11T01:13:06.534Z,32.60
2022-10-11T01:15:45.109Z,32.30
2022-10-11T01:18:20.612Z,26.90
2022-10-11T01:21:15.358Z,30.60
2022-10-11T01:24:07.468Z,32.00
2022-10-11T01:28:16.300Z,35.50
2022-10-11T01:30:43.572Z,29.90
2022-10-11T01:33:36.119Z,32.40
2022-10-11T01:36:09.313Z,27.80
2022-10-11T01:41:24.298Z,30.10
2022-10-11T01:43:57.234Z,28.50
2022-10-11T01:46:33.291Z,32.50
2022-10-11T01:49:01.097Z,29.70
2022-10-11T01:51:33.568Z,30.80
2022-10-11T01:58:04.783Z,25.60
2022-10-11T02:00:38.882Z,27.90
2022-10-11T02:03:18.193Z,27.20
2022-10-11T02:06:10.739Z,26.40
2022-10-11T02:08:45.978Z,23.40
2022-10-11T02:11:17.222Z,29.80
2022-10-11T02:13:58.001Z,21.60
2022-10-11T02:16:28.701Z,27.10
2022-10-11T02:18:55.876Z,23.80
2022-10-11T02:21:23.330Z,27.80
2022-10-11T02:23:53.924Z,27.40
2022-10-11T02:26:21.827Z,26.00
2022-10-11T02:28:48.942Z,26.70
2022-10-11T02:31:16.332Z,27.70
2022-10-11T02:33:47.081Z,25.20
2022-10-11T02:36:27.051Z,25.70
2022-10-11T02:38:55.817Z,24.60
2022-10-11T02:41:29.914Z,24.80
2022-10-11T02:44:06.840Z,25.10
2022-10-11T02:46:33.956Z,26.50
2022-10-11T02:49:01.298Z,29.20
2022-10-11T02:51:30.804Z,24.60
2022-10-11T02:53:58.198Z,26.40
2022-10-11T02:56:25.202Z,27.40
2022-10-11T02:58:52.147Z,25.70
2022-10-11T03:01:19.556Z,26.30
2022-10-11T03:03:46.856Z,24.80
2022-10-11T03:06:13.906Z,28.80
2022-10-11T13:45:41.034Z,17.70
2022-10-11T13:48:14.838Z,17.10
2022-10-11T13:50:51.870Z,16.80
2022-10-11T13:53:23.181Z,17.40
2022-10-11T13:55:52.725Z,14.80
2022-10-11T13:58:26.837Z,15.70
2022-10-11T14:00:58.350Z,13.00
2022-10-11T14:03:43.886Z,14.40
2022-10-11T14:06:10.916Z,16.40
2022-10-11T14:08:39.205Z,15.40
2022-10-11T14:11:07.297Z,24.80
2022-10-11T14:13:42.399Z,28.80
2022-10-11T14:16:12.313Z,23.90
2022-10-11T14:18:44.387Z,13.80
2022-10-11T14:23:50.453Z,15.90
2022-10-11T14:26:18.924Z,10.60
2022-10-11T14:28:51.644Z,18.20
2022-10-11T14:31:20.404Z,11.90
2022-10-11T14:33:47.773Z,11.20
2022-10-11T14:36:15.211Z,13.30
2022-10-11T14:38:42.367Z,11.50
2022-10-11T14:41:09.624Z,13.50
2022-10-11T14:43:38.306Z,9.40
2022-10-11T14:46:06.453Z,11.80
2022-10-11T14:48:54.433Z,11.80
2022-10-11T14:51:29.650Z,9.80
2022-10-11T14:53:56.805Z,16.20
2022-10-11T14:56:23.901Z,19.10
2022-10-11T14:58:52.021Z,20.20
2022-10-11T15:01:23.209Z,21.70
2022-10-11T15:03:51.239Z,20.20
2022-10-11T15:06:33.402Z,17.40
2022-10-11T15:09:01.097Z,24.30
2022-10-11T15:11:29.683Z,25.40
2022-10-11T15:14:00.112Z,21.60
2022-10-11T15:16:28.084Z,21.00
2022-10-11T15:18:55.535Z,19.00
2022-10-11T15:21:27.759Z,27.10
2022-10-11T15:24:05.535Z,20.40
2022-10-11T15:26:53.094Z,19.20
2022-10-11T15:29:23.660Z,18.00
2022-10-11T15:31:53.675Z,15.70
2022-10-11T15:34:21.439Z,19.70
2022-10-11T15:36:50.752Z,28.40
2022-10-11T15:39:31.071Z,26.80
2022-10-11T15:42:03.366Z,23.10
2022-10-11T15:44:32.535Z,17.00
2022-10-11T15:47:00.549Z,22.50
2022-10-11T15:49:30.821Z,32.10
2022-10-11T15:52:00.571Z,40.40
2022-10-11T15:54:27.721Z,38.10
2022-10-11T15:56:54.867Z,46.10
2022-10-11T15:59:25.060Z,40.30
2022-10-11T16:01:52.736Z,28.60
2022-10-11T16:04:22.253Z,29.00
2022-10-11T16:06:49.848Z,37.20
2022-10-11T16:09:16.870Z,40.00
2022-10-11T16:11:43.920Z,39.70
2022-10-11T16:14:11.470Z,35.40
2022-10-11T16:16:38.516Z,41.70
2022-10-11T16:19:05.468Z,48.60
2022-10-11T16:21:32.607Z,52.50
2022-10-11T16:23:59.862Z,42.60
2022-10-11T16:26:26.806Z,42.70
2022-10-11T16:28:56.038Z,35.00
2022-10-11T16:31:23.354Z,59.60
2022-10-11T16:33:52.361Z,52.90
2022-10-11T16:36:36.504Z,65.60
2022-10-11T16:39:14.525Z,64.60
2022-10-11T16:41:42.263Z,59.20
2022-10-11T16:44:13.850Z,60.80
2022-10-11T16:46:41.068Z,60.80
2022-10-11T16:49:08.116Z,67.90
2022-10-11T16:51:35.270Z,54.90
2022-10-11T16:54:05.248Z,61.40
2022-10-11T16:56:36.047Z,68.90
2022-10-11T16:59:07.076Z,64.40
2022-10-11T17:01:34.511Z,64.30
2022-10-11T17:04:18.482Z,95.70
2022-10-11T17:06:47.390Z,89.60
2022-10-11T17:09:15.636Z,93.60
2022-10-11T17:11:43.020Z,88.80
2022-10-11T17:14:11.352Z,87.30
2022-10-11T17:16:38.605Z,100.00
2022-10-11T17:19:47.631Z,119.10
2022-10-11T17:26:26.581Z,142.80
2022-10-11T17:32:23.982Z,157.70
2022-10-11T17:34:51.019Z,160.60
2022-10-11T17:37:40.245Z,162.30
2022-10-11T17:40:11.082Z,148.40
2022-10-11T17:42:39.131Z,159.40
2022-10-11T17:45:07.203Z,154.40
2022-10-11T17:47:34.351Z,159.90
2022-10-11T17:50:03.477Z,158.00
2022-10-11T17:52:31.006Z,164.50
2022-10-11T17:54:58.058Z,152.20
2022-10-11T17:57:25.116Z,146.20
2022-10-11T17:59:52.265Z,154.90
2022-10-11T18:02:19.610Z,141.30
2022-10-11T18:04:46.657Z,147.70
2022-10-11T18:07:13.753Z,141.60
2022-10-11T18:09:43.005Z,144.10
2022-10-11T18:12:10.279Z,152.90
2022-10-11T18:14:37.417Z,135.10
2022-10-11T18:17:04.761Z,145.40
2022-10-11T18:19:32.835Z,116.20
2022-10-11T18:25:06.839Z,114.40
2022-10-11T18:27:33.699Z,103.50
2022-10-11T18:30:00.944Z,100.80
2022-10-11T18:32:28.091Z,83.40
2022-10-11T18:34:57.115Z,73.30
2022-10-11T18:37:24.136Z,75.40
2022-10-11T18:39:51.481Z,73.60
2022-10-11T18:42:20.030Z,76.30
2022-10-11T18:44:49.716Z,70.10
2022-10-11T18:47:17.543Z,69.50
2022-10-11T18:49:44.607Z,68.10
2022-10-11T18:52:12.047Z,68.50
2022-10-11T18:54:39.209Z,65.30
2022-10-11T18:57:06.447Z,60.10
2022-10-11T18:59:33.906Z,74.50
2022-10-11T19:02:04.587Z,64.40
2022-10-11T19:04:33.829Z,64.90
2022-10-11T19:07:01.386Z,62.40
2022-10-11T19:09:30.275Z,60.00
2022-10-11T19:11:57.734Z,56.40
2022-10-11T19:14:28.092Z,58.00
2022-10-11T19:16:55.618Z,65.00
2022-10-11T19:19:27.791Z,62.30
2022-10-11T19:21:55.389Z,63.30
2022-10-11T19:24:23.934Z,59.90
2022-10-11T19:26:52.610Z,61.20
2022-10-11T19:29:24.384Z,60.50
2022-10-11T19:31:56.432Z,59.80
2022-10-11T19:34:26.371Z,62.50
2022-10-11T19:36:56.317Z,65.20
2022-10-11T19:39:24.031Z,63.70
2022-10-11T19:41:53.431Z,56.70
2022-10-11T19:44:20.886Z,52.50
2022-10-11T19:46:52.300Z,63.20
2022-10-11T19:49:24.420Z,60.60
2022-10-11T19:51:55.347Z,53.90
2022-10-11T19:54:23.821Z,54.50
2022-10-11T19:56:53.854Z,53.50
2022-10-11T19:59:20.990Z,51.80
2022-10-11T20:01:52.457Z,57.60
2022-10-11T20:04:51.177Z,55.10
2022-10-11T20:07:08.039Z,55.10
2022-10-11T20:09:36.477Z,59.30
2022-10-11T20:12:04.072Z,55.90
2022-10-11T20:14:31.546Z,52.50
2022-10-11T20:16:58.987Z,48.90
2022-10-11T20:19:31.366Z,47.80
2022-10-11T20:21:59.951Z,52.90
2022-10-11T20:24:31.906Z,49.80
2022-10-11T20:27:00.091Z,56.00
2022-10-11T20:29:28.287Z,53.50
2022-10-11T20:31:56.015Z,55.30
2022-10-11T20:34:23.509Z,54.10
2022-10-11T20:36:50.580Z,61.60
2022-10-11T20:39:17.606Z,59.30
2022-10-11T20:41:44.716Z,64.00
2022-10-11T20:44:12.711Z,56.10
2022-10-11T20:46:39.704Z,53.80
2022-10-11T20:49:10.785Z,62.00
2022-10-11T20:51:38.948Z,50.10
2022-10-11T20:54:06.510Z,47.30
2022-10-11T20:56:34.679Z,44.50
2022-10-11T20:59:01.731Z,42.00
2022-10-11T21:01:34.769Z,38.50
2022-10-11T21:04:02.070Z,33.50
2022-10-11T21:14:17.630Z,32.90
2022-10-11T21:16:44.647Z,28.60
2022-10-11T21:19:13.366Z,28.70
2022-10-11T21:21:40.376Z,23.60
2022-10-11T21:24:07.859Z,25.00
2022-10-11T21:26:36.106Z,23.90
2022-10-11T21:29:04.384Z,22.70
2022-10-11T21:31:34.338Z,22.60
2022-10-11T21:34:02.499Z,20.60
2022-10-11T21:36:29.624Z,22.60
2022-10-11T21:38:56.669Z,22.70
2022-10-11T21:41:25.598Z,23.00
2022-10-11T21:43:53.270Z,16.80
2022-10-11T21:46:22.521Z,20.90
2022-10-11T21:48:50.362Z,21.50
2022-10-11T21:51:19.192Z,18.10
2022-10-11T21:53:46.324Z,20.30
2022-10-11T21:56:13.371Z,21.40
2022-10-11T21:58:40.520Z,20.30
2022-10-11T22:01:07.786Z,17.80
2022-10-11T22:03:34.921Z,19.10
2022-10-11T22:06:03.651Z,20.50
2022-10-11T22:08:30.762Z,21.30
2022-10-11T22:10:59.044Z,21.70
2022-10-11T22:13:27.415Z,25.40
2022-10-11T22:15:56.510Z,27.80
2022-10-11T22:18:30.916Z,21.80
2022-10-11T22:21:13.748Z,24.50
2022-10-11T22:23:45.407Z,25.20
2022-10-11T22:26:14.396Z,20.80
2022-10-11T22:28:41.600Z,20.70
2022-10-11T22:31:09.510Z,21.60
2022-10-11T22:33:36.946Z,20.60
2022-10-11T22:36:08.830Z,21.30
2022-10-11T22:38:40.381Z,22.30
2022-10-11T22:41:07.533Z,24.70
2022-10-11T22:43:34.575Z,24.10
2022-10-11T22:46:02.032Z,22.10
2022-10-11T22:48:29.120Z,19.30
2022-10-11T22:50:55.969Z,19.80
2022-10-11T22:53:23.014Z,22.80
2022-10-11T22:55:50.016Z,19.10
2022-10-11T22:58:17.067Z,23.90
2022-10-11T23:00:44.321Z,17.50
2022-10-11T23:03:15.499Z,22.90
2022-10-11T23:05:42.648Z,21.70
2022-10-11T23:08:09.964Z,23.80
2022-10-11T23:10:40.603Z,26.80
2022-10-11T23:13:07.640Z,22.20
2022-10-11T23:15:34.597Z,20.80
2022-10-11T23:18:01.736Z,23.30
2022-10-11T23:20:28.697Z,24.90
2022-10-11T23:22:55.732Z,22.20
2022-10-11T23:25:22.785Z,21.10
2022-10-11T23:27:49.821Z,22.40
2022-10-11T23:30:16.878Z,23.70
2022-10-11T23:32:43.916Z,23.40
2022-10-11T23:35:10.880Z,21.70
2022-10-11T23:37:38.459Z,26.70
2022-10-11T23:40:06.801Z,24.30
2022-10-11T23:42:34.050Z,24.90
2022-10-11T23:45:00.996Z,25.50
2022-10-11T23:47:27.980Z,21.60
2022-10-11T23:49:54.884Z,27.70
2022-10-11T23:52:21.931Z,26.10
2022-10-11T23:54:48.880Z,30.60
2022-10-11T23:57:15.890Z,25.80
2022-10-11T23:59:42.969Z,28.00
